sensor_id;sensor_type;location;lat;lon;timestamp;pressure;altitude;pressure_sealevel;temperature;humidity
8160;BME280;27404;52.398;9.646;2023-03-04T00:01:36;101520.03;;;2.64;100.00
8160;BME280;27404;52.398;9.646;2023-03-04T00:04:01;101523.06;;;2.61;100.00
8160;BME280;27404;52.398;9.646;2023-03-04T00:06:27;101516.16;;;2.66;100.00
8160;BME280;27404;52.398;9.646;2023-03-04T00:08:52;101518.16;;;2.64;100.00
8160;BME280;27404;52.398;9.646;2023-03-04T00:11:17;101520.53;;;2.67;100.00
8160;BME280;27404;52.398;9.646;2023-03-04T00:13:43;101519.34;;;2.62;100.00
8160;BME280;27404;52.398;9.646;2023-03-04T00:16:08;101519.03;;;2.65;100.00
8160;BME280;27404;52.398;9.646;2023-03-04T00:18:34;101511.44;;;2.69;100.00
8160;BME280;27404;52.398;9.646;2023-03-04T00:20:59;101517.03;;;2.75;100.00
8160;BME280;27404;52.398;9.646;2023-03-04T00:23:25;101508.59;;;2.78;100.00
8160;BME280;27404;52.398;9.646;2023-03-04T00:25:50;101517.03;;;2.75;100.00
8160;BME280;27404;52.398;9.646;2023-03-04T00:28:16;101522.31;;;2.85;100.00
8160;BME280;27404;52.398;9.646;2023-03-04T00:30:41;101514.84;;;2.79;100.00
8160;BME280;27404;52.398;9.646;2023-03-04T00:33:06;101514.84;;;2.79;100.00
8160;BME280;27404;52.398;9.646;2023-03-04T00:35:32;101509.97;;;2.83;100.00
8160;BME280;27404;52.398;9.646;2023-03-04T00:37:57;101507.81;;;2.86;100.00
8160;BME280;27404;52.398;9.646;2023-03-04T00:40:23;101508.28;;;2.81;100.00
8160;BME280;27404;52.398;9.646;2023-03-04T00:42:48;101510.47;;;2.78;100.00
8160;BME280;27404;52.398;9.646;2023-03-04T00:45:13;101503.38;;;2.77;100.00
8160;BME280;27404;52.398;9.646;2023-03-04T00:47:39;101502.22;;;2.88;100.00
8160;BME280;27404;52.398;9.646;2023-03-04T00:50:05;101506.28;;;2.92;100.00
8160;BME280;27404;52.398;9.646;2023-03-04T00:52:30;101503.94;;;2.97;100.00
8160;BME280;27404;52.398;9.646;2023-03-04T00:54:56;101509.50;;;2.87;100.00
8160;BME280;27404;52.398;9.646;2023-03-04T00:57:21;101503.41;;;2.85;100.00
8160;BME280;27404;52.398;9.646;2023-03-04T00:59:46;101499.84;;;2.85;100.00
8160;BME280;27404;52.398;9.646;2023-03-04T01:02:12;101503.56;;;2.84;100.00
8160;BME280;27404;52.398;9.646;2023-03-04T01:04:37;101501.06;;;2.90;100.00
8160;BME280;27404;52.398;9.646;2023-03-04T01:07:04;101498.88;;;2.94;100.00
8160;BME280;27404;52.398;9.646;2023-03-04T01:09:30;101492.63;;;2.93;100.00
8160;BME280;27404;52.398;9.646;2023-03-04T01:11:56;101487.56;;;2.90;100.00
8160;BME280;27404;52.398;9.646;2023-03-04T01:14:21;101487.75;;;2.97;100.00
8160;BME280;27404;52.398;9.646;2023-03-04T01:16:47;101483.19;;;2.98;100.00
8160;BME280;27404;52.398;9.646;2023-03-04T01:19:13;101487.06;;;2.95;100.00
8160;BME280;27404;52.398;9.646;2023-03-04T01:21:38;101487.38;;;2.92;100.00
8160;BME280;27404;52.398;9.646;2023-03-04T01:24:04;101478.63;;;2.98;100.00
8160;BME280;27404;52.398;9.646;2023-03-04T01:26:29;101476.25;;;2.95;100.00
8160;BME280;27404;52.398;9.646;2023-03-04T01:28:55;101475.56;;;2.93;100.00
8160;BME280;27404;52.398;9.646;2023-03-04T01:31:20;101474.22;;;2.97;100.00
8160;BME280;27404;52.398;9.646;2023-03-04T01:33:46;101470.34;;;2.91;100.00
8160;BME280;27404;52.398;9.646;2023-03-04T01:36:11;101461.91;;;3.03;100.00
8160;BME280;27404;52.398;9.646;2023-03-04T01:38:36;101461.91;;;2.94;100.00
8160;BME280;27404;52.398;9.646;2023-03-04T01:41:02;101458.22;;;2.95;100.00
8160;BME280;27404;52.398;9.646;2023-03-04T01:43:29;101448.91;;;2.98;100.00
8160;BME280;27404;52.398;9.646;2023-03-04T01:45:55;101452.28;;;3.00;100.00
8160;BME280;27404;52.398;9.646;2023-03-04T01:48:28;101457.19;;;3.05;100.00
8160;BME280;27404;52.398;9.646;2023-03-04T01:50:54;101439.97;;;3.06;100.00
8160;BME280;27404;52.398;9.646;2023-03-04T01:53:25;101440.47;;;3.01;100.00
8160;BME280;27404;52.398;9.646;2023-03-04T01:55:54;101437.78;;;3.01;100.00
8160;BME280;27404;52.398;9.646;2023-03-04T01:58:24;101424.97;;;3.03;100.00
8160;BME280;27404;52.398;9.646;2023-03-04T02:00:50;101426.47;;;3.06;100.00
8160;BME280;27404;52.398;9.646;2023-03-04T02:03:17;101424.97;;;3.03;100.00
8160;BME280;27404;52.398;9.646;2023-03-04T02:05:48;101414.84;;;3.05;100.00
8160;BME280;27404;52.398;9.646;2023-03-04T02:08:15;101416.00;;;3.03;100.00
8160;BME280;27404;52.398;9.646;2023-03-04T02:10:43;101410.44;;;3.13;100.00
8160;BME280;27404;52.398;9.646;2023-03-04T02:13:10;101416.34;;;3.08;100.00
8160;BME280;27404;52.398;9.646;2023-03-04T02:15:36;101406.56;;;3.15;100.00
8160;BME280;27404;52.398;9.646;2023-03-04T02:18:09;101403.34;;;3.11;100.00
8160;BME280;27404;52.398;9.646;2023-03-04T02:26:34;101400.13;;;3.08;100.00
8160;BME280;27404;52.398;9.646;2023-03-04T02:29:01;101398.44;;;3.07;100.00
8160;BME280;27404;52.398;9.646;2023-03-04T02:31:38;101396.75;;;3.14;100.00
8160;BME280;27404;52.398;9.646;2023-03-04T02:34:18;101405.22;;;3.19;100.00
8160;BME280;27404;52.398;9.646;2023-03-04T02:36:45;101398.09;;;3.10;100.00
8160;BME280;27404;52.398;9.646;2023-03-04T02:39:21;101402.50;;;3.19;100.00
8160;BME280;27404;52.398;9.646;2023-03-04T02:41:52;101384.78;;;3.17;100.00
8160;BME280;27404;52.398;9.646;2023-03-04T02:44:23;101387.16;;;3.20;100.00
8160;BME280;27404;52.398;9.646;2023-03-04T02:46:50;101381.25;;;3.24;100.00
8160;BME280;27404;52.398;9.646;2023-03-04T02:49:16;101385.28;;;3.20;100.00
8160;BME280;27404;52.398;9.646;2023-03-04T02:51:42;101380.06;;;3.19;100.00
8160;BME280;27404;52.398;9.646;2023-03-04T02:54:15;101383.78;;;3.18;100.00
8160;BME280;27404;52.398;9.646;2023-03-04T02:56:48;101390.03;;;3.26;100.00
8160;BME280;27404;52.398;9.646;2023-03-04T02:59:13;101381.09;;;3.26;100.00
8160;BME280;27404;52.398;9.646;2023-03-04T03:01:39;101391.72;;;3.28;100.00
8160;BME280;27404;52.398;9.646;2023-03-04T03:04:04;101383.28;;;3.39;100.00
8160;BME280;27404;52.398;9.646;2023-03-04T03:06:30;101382.25;;;3.23;100.00
8160;BME280;27404;52.398;9.646;2023-03-04T03:08:55;101384.28;;;3.30;100.00
8160;BME280;27404;52.398;9.646;2023-03-04T03:11:21;101388.16;;;3.35;100.00
8160;BME280;27404;52.398;9.646;2023-03-04T03:13:46;101382.44;;;3.30;100.00
8160;BME280;27404;52.398;9.646;2023-03-04T03:16:11;101390.19;;;3.33;100.00
8160;BME280;27404;52.398;9.646;2023-03-04T03:18:37;101386.31;;;3.28;100.00
8160;BME280;27404;52.398;9.646;2023-03-04T03:21:02;101384.47;;;3.28;100.00
8160;BME280;27404;52.398;9.646;2023-03-04T03:23:28;101377.72;;;3.24;100.00
8160;BME280;27404;52.398;9.646;2023-03-04T03:25:53;101382.59;;;3.29;100.00
8160;BME280;27404;52.398;9.646;2023-03-04T03:28:19;101386.16;;;3.29;100.00
8160;BME280;27404;52.398;9.646;2023-03-04T03:30:44;101377.88;;;3.39;100.00
8160;BME280;27404;52.398;9.646;2023-03-04T03:33:10;101376.31;;;3.36;100.00
8160;BME280;27404;52.398;9.646;2023-03-04T03:35:35;101377.53;;;3.34;100.00
8160;BME280;27404;52.398;9.646;2023-03-04T03:38:01;101372.59;;;3.37;100.00
8160;BME280;27404;52.398;9.646;2023-03-04T03:40:26;101373.63;;;3.36;100.00
8160;BME280;27404;52.398;9.646;2023-03-04T03:42:51;101368.06;;;3.38;100.00
8160;BME280;27404;52.398;9.646;2023-03-04T03:45:17;101365.38;;;3.38;100.00
8160;BME280;27404;52.398;9.646;2023-03-04T03:47:42;101363.81;;;3.35;100.00
8160;BME280;27404;52.398;9.646;2023-03-04T03:50:08;101368.41;;;3.35;100.00
8160;BME280;27404;52.398;9.646;2023-03-04T03:52:34;101361.31;;;3.34;100.00
8160;BME280;27404;52.398;9.646;2023-03-04T03:54:59;101361.47;;;3.40;100.00
8160;BME280;27404;52.398;9.646;2023-03-04T03:57:26;101357.75;;;3.41;100.00
8160;BME280;27404;52.398;9.646;2023-03-04T03:59:52;101353.69;;;3.37;100.00
8160;BME280;27404;52.398;9.646;2023-03-04T04:02:17;101366.38;;;3.37;100.00
8160;BME280;27404;52.398;9.646;2023-03-04T04:04:43;101357.59;;;3.35;100.00
8160;BME280;27404;52.398;9.646;2023-03-04T04:07:08;101357.25;;;3.30;100.00
8160;BME280;27404;52.398;9.646;2023-03-04T04:09:33;101359.13;;;3.29;100.00
8160;BME280;27404;52.398;9.646;2023-03-04T04:11:59;101363.34;;;3.32;100.00
8160;BME280;27404;52.398;9.646;2023-03-04T04:14:24;101355.56;;;3.29;100.00
8160;BME280;27404;52.398;9.646;2023-03-04T04:16:50;101359.13;;;3.21;100.00
8160;BME280;27404;52.398;9.646;2023-03-04T04:19:17;101363.19;;;3.25;100.00
8160;BME280;27404;52.398;9.646;2023-03-04T04:21:43;101359.28;;;3.19;100.00
8160;BME280;27404;52.398;9.646;2023-03-04T04:24:09;101357.59;;;3.10;100.00
8160;BME280;27404;52.398;9.646;2023-03-04T04:26:37;101365.00;;;3.08;100.00
8160;BME280;27404;52.398;9.646;2023-03-04T04:29:02;101357.56;;;3.02;100.00
8160;BME280;27404;52.398;9.646;2023-03-04T04:31:28;101350.50;;;3.01;100.00
8160;BME280;27404;52.398;9.646;2023-03-04T04:33:53;101353.72;;;2.96;100.00
8160;BME280;27404;52.398;9.646;2023-03-04T04:36:19;101358.94;;;2.89;100.00
8160;BME280;27404;52.398;9.646;2023-03-04T04:38:44;101357.41;;;2.87;100.00
8160;BME280;27404;52.398;9.646;2023-03-04T04:41:17;101353.34;;;2.91;100.00
8160;BME280;27404;52.398;9.646;2023-03-04T04:43:43;101352.00;;;2.87;100.00
8160;BME280;27404;52.398;9.646;2023-03-04T04:46:09;101347.94;;;2.83;100.00
8160;BME280;27404;52.398;9.646;2023-03-04T04:48:34;101346.44;;;2.80;100.00
8160;BME280;27404;52.398;9.646;2023-03-04T04:51:00;101347.94;;;2.83;100.00
8160;BME280;27404;52.398;9.646;2023-03-04T04:53:25;101347.13;;;2.82;100.00
8160;BME280;27404;52.398;9.646;2023-03-04T04:55:50;101340.84;;;2.73;100.00
8160;BME280;27404;52.398;9.646;2023-03-04T04:58:16;101332.59;;;2.75;100.00
8160;BME280;27404;52.398;9.646;2023-03-04T05:00:41;101334.28;;;2.76;100.00
8160;BME280;27404;52.398;9.646;2023-03-04T05:03:07;101327.34;;;2.81;100.00
8160;BME280;27404;52.398;9.646;2023-03-04T05:05:32;101330.91;;;2.82;100.00
8160;BME280;27404;52.398;9.646;2023-03-04T05:07:58;101332.59;;;2.75;100.00
8160;BME280;27404;52.398;9.646;2023-03-04T05:10:23;101321.94;;;2.73;100.00
8160;BME280;27404;52.398;9.646;2023-03-04T05:12:49;101323.13;;;2.71;100.00
8160;BME280;27404;52.398;9.646;2023-03-04T05:15:14;101318.91;;;2.76;100.00
8160;BME280;27404;52.398;9.646;2023-03-04T05:17:40;101317.41;;;2.74;100.00
8160;BME280;27404;52.398;9.646;2023-03-04T05:20:06;101318.22;;;2.74;100.00
8160;BME280;27404;52.398;9.646;2023-03-04T05:22:31;101316.53;;;2.73;100.00
8160;BME280;27404;52.398;9.646;2023-03-04T05:24:57;101308.78;;;2.70;100.00
8160;BME280;27404;52.398;9.646;2023-03-04T05:27:22;101314.03;;;2.80;100.00
8160;BME280;27404;52.398;9.646;2023-03-04T05:29:48;101312.34;;;2.79;100.00
8160;BME280;27404;52.398;9.646;2023-03-04T05:32:13;101309.66;;;2.79;100.00
8160;BME280;27404;52.398;9.646;2023-03-04T05:34:38;101319.91;;;2.75;100.00
8160;BME280;27404;52.398;9.646;2023-03-04T05:37:04;101320.94;;;2.83;100.00
8160;BME280;27404;52.398;9.646;2023-03-04T05:39:29;101314.88;;;2.80;100.00
8160;BME280;27404;52.398;9.646;2023-03-04T05:41:55;101314.38;;;2.77;100.00
8160;BME280;27404;52.398;9.646;2023-03-04T05:44:20;101316.75;;;2.80;100.00
8160;BME280;27404;52.398;9.646;2023-03-04T05:46:45;101321.94;;;2.81;100.00
8160;BME280;27404;52.398;9.646;2023-03-04T05:49:11;101322.97;;;2.80;100.00
8160;BME280;27404;52.398;9.646;2023-03-04T05:51:36;101314.69;;;2.74;100.00
8160;BME280;27404;52.398;9.646;2023-03-04T05:54:02;101325.50;;;2.74;100.00
8160;BME280;27404;52.398;9.646;2023-03-04T05:56:27;101315.72;;;2.73;100.00
8160;BME280;27404;52.398;9.646;2023-03-04T05:58:58;101312.00;;;2.74;100.00
8160;BME280;27404;52.398;9.646;2023-03-04T06:01:24;101318.56;;;2.71;100.00
8160;BME280;27404;52.398;9.646;2023-03-04T06:03:49;101316.53;;;2.73;100.00
8160;BME280;27404;52.398;9.646;2023-03-04T06:06:15;101316.88;;;2.70;100.00
8160;BME280;27404;52.398;9.646;2023-03-04T06:08:40;101319.91;;;2.67;100.00
8160;BME280;27404;52.398;9.646;2023-03-04T06:11:06;101315.72;;;2.73;100.00
8160;BME280;27404;52.398;9.646;2023-03-04T06:13:31;101319.91;;;2.75;100.00
8160;BME280;27404;52.398;9.646;2023-03-04T06:15:57;101317.41;;;2.82;100.00
8160;BME280;27404;52.398;9.646;2023-03-04T06:18:24;101315.88;;;2.79;100.00
8160;BME280;27404;52.398;9.646;2023-03-04T06:20:50;101317.56;;;2.80;100.00
8160;BME280;27404;52.398;9.646;2023-03-04T06:23:15;101315.38;;;2.84;100.00
8160;BME280;27404;52.398;9.646;2023-03-04T06:25:41;101310.66;;;2.86;100.00
8160;BME280;27404;52.398;9.646;2023-03-04T06:28:07;101313.84;;;2.81;100.00
8160;BME280;27404;52.398;9.646;2023-03-04T06:30:32;101298.50;;;2.82;100.00
8160;BME280;27404;52.398;9.646;2023-03-04T06:32:58;101312.50;;;2.86;100.00
8160;BME280;27404;52.398;9.646;2023-03-04T06:35:23;101314.88;;;2.89;100.00
8160;BME280;27404;52.398;9.646;2023-03-04T06:37:49;101313.72;;;2.91;100.00
8160;BME280;27404;52.398;9.646;2023-03-04T06:40:14;101312.69;;;2.92;100.00
8160;BME280;27404;52.398;9.646;2023-03-04T06:42:40;101315.41;;;2.92;100.00
8160;BME280;27404;52.398;9.646;2023-03-04T06:45:07;101320.81;;;2.92;100.00
8160;BME280;27404;52.398;9.646;2023-03-04T06:47:32;101320.09;;;2.99;100.00
8160;BME280;27404;52.398;9.646;2023-03-04T06:49:58;101322.66;;;3.00;100.00
8160;BME280;27404;52.398;9.646;2023-03-04T06:52:23;101320.09;;;2.99;100.00
8160;BME280;27404;52.398;9.646;2023-03-04T06:54:49;101326.53;;;3.06;100.00
8160;BME280;27404;52.398;9.646;2023-03-04T06:57:14;101316.91;;;3.11;100.00
8160;BME280;27404;52.398;9.646;2023-03-04T06:59:40;101315.38;;;3.09;100.00
8160;BME280;27404;52.398;9.646;2023-03-04T07:02:06;101314.38;;;3.10;100.00
8160;BME280;27404;52.398;9.646;2023-03-04T07:04:34;101317.75;;;3.04;100.00
8160;BME280;27404;52.398;9.646;2023-03-04T07:06:59;101314.69;;;3.07;100.00
8160;BME280;27404;52.398;9.646;2023-03-04T07:09:24;101323.47;;;3.09;100.00
8160;BME280;27404;52.398;9.646;2023-03-04T07:11:50;101324.50;;;3.08;100.00
8160;BME280;27404;52.398;9.646;2023-03-04T07:14:15;101323.66;;;3.07;100.00
8160;BME280;27404;52.398;9.646;2023-03-04T07:16:41;101321.13;;;3.14;100.00
8160;BME280;27404;52.398;9.646;2023-03-04T07:19:06;101324.34;;;3.09;100.00
8160;BME280;27404;52.398;9.646;2023-03-04T07:21:32;101326.19;;;3.09;100.00
8160;BME280;27404;52.398;9.646;2023-03-04T07:23:57;101319.28;;;2.98;100.00
8160;BME280;27404;52.398;9.646;2023-03-04T07:26:23;101343.06;;;3.03;100.00
8160;BME280;27404;52.398;9.646;2023-03-04T07:28:48;101328.41;;;3.05;100.00
8160;BME280;27404;52.398;9.646;2023-03-04T07:31:27;101337.50;;;3.13;100.00
8160;BME280;27404;52.398;9.646;2023-03-04T07:34:01;101334.97;;;3.19;100.00
8160;BME280;27404;52.398;9.646;2023-03-04T07:36:27;101341.38;;;3.26;100.00
8160;BME280;27404;52.398;9.646;2023-03-04T07:38:53;101339.19;;;3.30;100.00
8160;BME280;27404;52.398;9.646;2023-03-04T07:41:20;101342.41;;;3.34;100.00
8160;BME280;27404;52.398;9.646;2023-03-04T07:43:46;101338.19;;;3.23;100.00
8160;BME280;27404;52.398;9.646;2023-03-04T07:46:12;101338.34;;;3.21;100.00
8160;BME280;27404;52.398;9.646;2023-03-04T07:48:38;101340.38;;;3.28;100.00
8160;BME280;27404;52.398;9.646;2023-03-04T07:51:14;101337.13;;;3.32;100.00
8160;BME280;27404;52.398;9.646;2023-03-04T07:53:41;101333.94;;;3.45;100.00
8160;BME280;27404;52.398;9.646;2023-03-04T07:56:11;101339.84;;;3.40;100.00
8160;BME280;27404;52.398;9.646;2023-03-04T07:58:36;101343.75;;;3.46;100.00
8160;BME280;27404;52.398;9.646;2023-03-04T08:01:11;101322.78;;;3.48;100.00
8160;BME280;27404;52.398;9.646;2023-03-04T08:03:38;101318.53;;;3.54;100.00
8160;BME280;27404;52.398;9.646;2023-03-04T08:06:10;101329.53;;;3.61;100.00
8160;BME280;27404;52.398;9.646;2023-03-04T08:08:36;101328.00;;;3.50;100.00
8160;BME280;27404;52.398;9.646;2023-03-04T08:11:04;101329.88;;;3.49;100.00
8160;BME280;27404;52.398;9.646;2023-03-04T08:13:30;101325.16;;;3.51;100.00
8160;BME280;27404;52.398;9.646;2023-03-04T08:15:56;101334.94;;;3.52;100.00
8160;BME280;27404;52.398;9.646;2023-03-04T08:18:21;101325.50;;;3.48;100.00
8160;BME280;27404;52.398;9.646;2023-03-04T08:20:47;101330.91;;;3.48;100.00
8160;BME280;27404;52.398;9.646;2023-03-04T08:23:12;101330.03;;;3.56;100.00
8160;BME280;27404;52.398;9.646;2023-03-04T08:25:39;101331.22;;;3.45;100.00
8160;BME280;27404;52.398;9.646;2023-03-04T08:28:06;101340.84;;;3.48;100.00
8160;BME280;27404;52.398;9.646;2023-03-04T08:30:32;101329.03;;;3.49;100.00
8160;BME280;27404;52.398;9.646;2023-03-04T08:32:57;101328.00;;;3.50;100.00
8160;BME280;27404;52.398;9.646;2023-03-04T08:35:23;101327.31;;;3.56;100.00
8160;BME280;27404;52.398;9.646;2023-03-04T08:37:48;101323.28;;;3.52;100.00
8160;BME280;27404;52.398;9.646;2023-03-04T08:40:14;101330.69;;;3.58;100.00
8160;BME280;27404;52.398;9.646;2023-03-04T08:42:40;101327.16;;;3.58;100.00
8160;BME280;27404;52.398;9.646;2023-03-04T08:45:07;101319.53;;;3.61;100.00
8160;BME280;27404;52.398;9.646;2023-03-04T08:47:32;101322.72;;;3.65;100.00
8160;BME280;27404;52.398;9.646;2023-03-04T08:49:58;101331.88;;;3.64;100.00
8160;BME280;27404;52.398;9.646;2023-03-04T08:52:24;101322.44;;;3.60;100.00
8160;BME280;27404;52.398;9.646;2023-03-04T08:54:49;101323.59;;;3.65;100.00
8160;BME280;27404;52.398;9.646;2023-03-04T08:57:14;101324.41;;;3.66;100.00
8160;BME280;27404;52.398;9.646;2023-03-04T08:59:40;101329.13;;;3.72;100.00
8160;BME280;27404;52.398;9.646;2023-03-04T09:02:05;101332.34;;;3.84;100.00
8160;BME280;27404;52.398;9.646;2023-03-04T09:04:31;101330.94;;;3.96;100.00
8160;BME280;27404;52.398;9.646;2023-03-04T09:06:56;101324.28;;;4.07;100.00
8160;BME280;27404;52.398;9.646;2023-03-04T09:09:22;101331.13;;;4.26;100.00
8160;BME280;27404;52.398;9.646;2023-03-04T09:11:47;101330.75;;;4.38;100.00
8160;BME280;27404;52.398;9.646;2023-03-04T09:14:13;101332.56;;;4.45;100.00
8160;BME280;27404;52.398;9.646;2023-03-04T09:16:38;101333.75;;;4.74;100.00
8160;BME280;27404;52.398;9.646;2023-03-04T09:19:04;101332.88;;;4.74;100.00
8160;BME280;27404;52.398;9.646;2023-03-04T09:21:29;101340.78;;;4.84;100.00
8160;BME280;27404;52.398;9.646;2023-03-04T09:23:54;101331.03;;;4.74;100.00
8160;BME280;27404;52.398;9.646;2023-03-04T09:26:25;101331.63;;;4.62;100.00
8160;BME280;27404;52.398;9.646;2023-03-04T09:28:53;101337.41;;;4.58;100.00
8160;BME280;27404;52.398;9.646;2023-03-04T09:31:18;101336.13;;;4.46;100.00
8160;BME280;27404;52.398;9.646;2023-03-04T09:33:44;101339.28;;;4.50;100.00
8160;BME280;27404;52.398;9.646;2023-03-04T09:36:11;101344.31;;;4.61;100.00
8160;BME280;27404;52.398;9.646;2023-03-04T09:38:37;101345.66;;;4.88;100.00
8160;BME280;27404;52.398;9.646;2023-03-04T09:41:11;101333.47;;;5.08;100.00
8160;BME280;27404;52.398;9.646;2023-03-04T09:43:40;101331.69;;;5.00;100.00
8160;BME280;27404;52.398;9.646;2023-03-04T09:46:13;101340.97;;;4.82;100.00
8160;BME280;27404;52.398;9.646;2023-03-04T09:48:49;101343.28;;;4.62;100.00
8160;BME280;27404;52.398;9.646;2023-03-04T09:56:37;101337.00;;;4.38;100.00
8160;BME280;27404;52.398;9.646;2023-03-04T09:59:12;101341.38;;;4.39;100.00
8160;BME280;27404;52.398;9.646;2023-03-04T10:01:47;101345.94;;;4.47;100.00
8160;BME280;27404;52.398;9.646;2023-03-04T10:06:51;101334.50;;;4.60;100.00
8160;BME280;27404;52.398;9.646;2023-03-04T10:12:28;101336.13;;;4.69;100.00
8160;BME280;27404;52.398;9.646;2023-03-04T10:15:01;101334.16;;;4.63;100.00
8160;BME280;27404;52.398;9.646;2023-03-04T10:17:40;101328.53;;;4.65;100.00
8160;BME280;27404;52.398;9.646;2023-03-04T10:20:32;101334.09;;;4.71;100.00
8160;BME280;27404;52.398;9.646;2023-03-04T10:23:14;101329.69;;;4.70;100.00
8160;BME280;27404;52.398;9.646;2023-03-04T10:25:45;101331.50;;;4.55;100.00
8160;BME280;27404;52.398;9.646;2023-03-04T10:28:17;101336.56;;;4.58;100.00
8160;BME280;27404;52.398;9.646;2023-03-04T10:33:20;101320.38;;;4.96;100.00
8160;BME280;27404;52.398;9.646;2023-03-04T10:35:59;101324.13;;;5.33;100.00
8160;BME280;27404;52.398;9.646;2023-03-04T10:38:28;101313.50;;;5.47;100.00
8160;BME280;27404;52.398;9.646;2023-03-04T10:40:56;101304.03;;;5.73;100.00
8160;BME280;27404;52.398;9.646;2023-03-04T10:43:22;101309.66;;;5.71;100.00
8160;BME280;27404;52.398;9.646;2023-03-04T10:45:54;101306.28;;;5.84;100.00
8160;BME280;27404;52.398;9.646;2023-03-04T10:48:26;101312.09;;;5.81;100.00
8160;BME280;27404;52.398;9.646;2023-03-04T10:50:51;101309.28;;;5.74;100.00
8160;BME280;27404;52.398;9.646;2023-03-04T10:53:40;101308.25;;;6.05;100.00
8160;BME280;27404;52.398;9.646;2023-03-04T10:59:24;101307.63;;;6.55;100.00
8160;BME280;27404;52.398;9.646;2023-03-04T11:01:53;101298.03;;;6.59;100.00
8160;BME280;27404;52.398;9.646;2023-03-04T11:04:22;101303.53;;;6.66;100.00
8160;BME280;27404;52.398;9.646;2023-03-04T11:06:50;101305.69;;;6.34;100.00
8160;BME280;27404;52.398;9.646;2023-03-04T11:09:34;101308.06;;;5.77;100.00
8160;BME280;27404;52.398;9.646;2023-03-04T11:12:01;101311.97;;;5.29;100.00
8160;BME280;27404;52.398;9.646;2023-03-04T11:14:34;101311.56;;;5.17;100.00
8160;BME280;27404;52.398;9.646;2023-03-04T11:17:16;101319.28;;;5.06;100.00
8160;BME280;27404;52.398;9.646;2023-03-04T11:19:46;101312.53;;;5.01;100.00
8160;BME280;27404;52.398;9.646;2023-03-04T11:22:17;101318.97;;;5.24;100.00
8160;BME280;27404;52.398;9.646;2023-03-04T11:25:34;101318.13;;;5.38;100.00
8160;BME280;27404;52.398;9.646;2023-03-04T11:28:17;101311.16;;;5.44;100.00
8160;BME280;27404;52.398;9.646;2023-03-04T11:30:35;101307.78;;;5.72;100.00
8160;BME280;27404;52.398;9.646;2023-03-04T11:36:40;101311.44;;;5.79;100.00
8160;BME280;27404;52.398;9.646;2023-03-04T11:39:35;101297.78;;;5.72;100.00
8160;BME280;27404;52.398;9.646;2023-03-04T11:42:24;101296.28;;;5.85;100.00
8160;BME280;27404;52.398;9.646;2023-03-04T11:44:52;101295.19;;;6.31;100.00
8160;BME280;27404;52.398;9.646;2023-03-04T11:48:07;101291.16;;;6.05;100.00
8160;BME280;27404;52.398;9.646;2023-03-04T11:53:10;101290.78;;;5.93;100.00
8160;BME280;27404;52.398;9.646;2023-03-04T11:56:08;101291.22;;;6.12;100.00
8160;BME280;27404;52.398;9.646;2023-03-04T12:01:27;101278.78;;;6.39;100.00
8160;BME280;27404;52.398;9.646;2023-03-04T12:12:03;101271.88;;;6.36;100.00
8160;BME280;27404;52.398;9.646;2023-03-04T12:17:35;101269.09;;;6.30;100.00
8160;BME280;27404;52.398;9.646;2023-03-04T12:22:55;101259.94;;;6.52;100.00
8160;BME280;27404;52.398;9.646;2023-03-04T12:33:36;101253.59;;;6.67;100.00
8160;BME280;27404;52.398;9.646;2023-03-04T12:36:28;101257.78;;;6.91;100.00
8160;BME280;27404;52.398;9.646;2023-03-04T12:39:04;101258.94;;;7.04;100.00
8160;BME280;27404;52.398;9.646;2023-03-04T12:53:10;101250.31;;;6.50;100.00
8160;BME280;27404;52.398;9.646;2023-03-04T12:55:44;101236.84;;;6.42;100.00
8160;BME280;27404;52.398;9.646;2023-03-04T12:58:15;101248.81;;;6.26;100.00
8160;BME280;27404;52.398;9.646;2023-03-04T13:00:49;101265.75;;;5.98;100.00
8160;BME280;27404;52.398;9.646;2023-03-04T13:03:34;101237.91;;;5.74;100.00
8160;BME280;27404;52.398;9.646;2023-03-04T13:06:14;101242.75;;;5.93;100.00
8160;BME280;27404;52.398;9.646;2023-03-04T13:09:46;101235.06;;;6.12;100.00
8160;BME280;27404;52.398;9.646;2023-03-04T13:12:01;101245.47;;;6.08;100.00
8160;BME280;27404;52.398;9.646;2023-03-04T13:14:29;101236.13;;;5.96;100.00
8160;BME280;27404;52.398;9.646;2023-03-04T13:16:57;101231.44;;;5.75;100.00
8160;BME280;27404;52.398;9.646;2023-03-04T13:22:27;101233.72;;;6.23;100.00
8160;BME280;27404;52.398;9.646;2023-03-04T13:24:53;101230.97;;;6.01;100.00
8160;BME280;27404;52.398;9.646;2023-03-04T13:27:49;101225.53;;;5.86;100.00
8160;BME280;27404;52.398;9.646;2023-03-04T13:32:56;101222.25;;;6.43;100.00
8160;BME280;27404;52.398;9.646;2023-03-04T13:43:56;101220.13;;;5.86;100.00
8160;BME280;27404;52.398;9.646;2023-03-04T13:58:52;101222.75;;;5.64;100.00
8160;BME280;27404;52.398;9.646;2023-03-04T14:01:30;101215.78;;;5.55;100.00
8160;BME280;27404;52.398;9.646;2023-03-04T14:03:57;101239.53;;;5.53;100.00
8160;BME280;27404;52.398;9.646;2023-03-04T14:06:25;101238.88;;;5.51;100.00
8160;BME280;27404;52.398;9.646;2023-03-04T14:08:52;101219.41;;;5.62;100.00
8160;BME280;27404;52.398;9.646;2023-03-04T14:11:28;101229.31;;;5.70;100.00
8160;BME280;27404;52.398;9.646;2023-03-04T14:13:58;101219.94;;;5.73;100.00
8160;BME280;27404;52.398;9.646;2023-03-04T14:16:28;101227.06;;;5.59;100.00
8160;BME280;27404;52.398;9.646;2023-03-04T14:19:02;101232.59;;;5.51;100.00
8160;BME280;27404;52.398;9.646;2023-03-04T14:21:28;101232.41;;;5.37;100.00
8160;BME280;27404;52.398;9.646;2023-03-04T14:24:06;101237.44;;;5.25;100.00
8160;BME280;27404;52.398;9.646;2023-03-04T14:26:32;101238.03;;;4.97;100.00
8160;BME280;27404;52.398;9.646;2023-03-04T14:28:59;101237.31;;;5.03;100.00
8160;BME280;27404;52.398;9.646;2023-03-04T14:31:28;101238.63;;;4.93;100.00
8160;BME280;27404;52.398;9.646;2023-03-04T14:33:55;101240.13;;;4.95;100.00
8160;BME280;27404;52.398;9.646;2023-03-04T14:36:28;101231.41;;;4.85;100.00
8160;BME280;27404;52.398;9.646;2023-03-04T14:38:56;101228.13;;;4.89;100.00